Time;durP1;ratioP1;P1;durP2;ratioP2;P2;SDS_P1;SDS_P2;PMS_P1;PMS_P2;Temp;Humidity;BMP_temperature;BMP_pressure;BME280_temperature;BME280_humidity;BME280_pressure;Samples;Min_cycle;Max_cycle;Signal;HPM_P1;HPM_P2
2022/11/27 00:02:04;;;;;;;60.75;21.02;;;;;;;9.93;100.00;102507.72;5115812;28;20037;-70
2022/11/27 00:04:29;;;;;;;59.90;22.10;;;;;;;9.94;100.00;102507.56;5123146;28;20039;-71
2022/11/27 00:06:54;;;;;;;59.72;22.08;;;;;;;9.96;100.00;102510.09;5105956;28;20012;-71
2022/11/27 00:09:20;;;;;;;61.08;21.50;;;;;;;9.82;100.00;102485.44;5117661;28;20031;-71
2022/11/27 00:11:45;;;;;;;54.15;21.00;;;;;;;9.94;100.00;102521.03;5129708;28;20012;-70
2022/11/27 00:14:13;;;;;;;54.13;20.42;;;;;;;9.91;100.00;102515.94;5112368;28;20032;-71
2022/11/27 00:16:38;;;;;;;56.08;20.38;;;;;;;9.77;100.00;102487.75;5108559;28;20028;-70
2022/11/27 00:19:04;;;;;;;56.03;20.35;;;;;;;9.94;100.00;102515.66;5123362;28;20035;-70
2022/11/27 00:21:32;;;;;;;57.53;19.15;;;;;;;9.97;100.00;102518.03;5113547;28;20104;-71
2022/11/27 00:24:01;;;;;;;52.70;19.30;;;;;;;9.96;100.00;102520.84;5126791;28;20030;-70
2022/11/27 00:26:28;;;;;;;52.95;18.45;;;;;;;9.95;100.00;102525.38;5115431;28;20380;-75
2022/11/27 00:28:53;;;;;;;48.97;18.98;;;;;;;9.93;100.00;102523.84;5120246;28;20027;-71
2022/11/27 00:31:28;;;;;;;52.25;19.00;;;;;;;9.95;100.00;102524.56;5128424;28;20090;-70
2022/11/27 00:33:55;;;;;;;57.67;19.33;;;;;;;9.93;100.00;102530.06;5113167;28;20382;-70
2022/11/27 00:36:20;;;;;;;63.22;19.10;;;;;;;9.93;100.00;102519.31;5125586;28;20554;-70
2022/11/27 00:38:46;;;;;;;49.88;17.67;;;;;;;9.79;100.00;102499.19;5108178;28;20080;-70
2022/11/27 00:41:18;;;;;;;53.10;17.48;;;;;;;9.91;100.00;102521.31;5082945;28;20032;-70
2022/11/27 00:43:44;;;;;;;49.13;17.38;;;;;;;9.92;100.00;102519.47;5118749;28;20600;-70
2022/11/27 00:46:20;;;;;;;43.67;17.00;;;;;;;9.92;100.00;102509.56;5101759;28;20118;-70
2022/11/27 00:48:46;;;;;;;55.75;17.10;;;;;;;9.81;100.00;102499.88;5107552;28;20440;-70
2022/11/27 00:51:15;;;;;;;49.60;17.48;;;;;;;9.91;100.00;102521.31;5112551;28;20059;-70
2022/11/27 00:53:42;;;;;;;47.83;17.13;;;;;;;9.92;100.00;102520.31;5100047;28;20520;-70
2022/11/27 00:56:10;;;;;;;45.28;17.33;;;;;;;9.89;100.00;102508.00;5112458;28;20076;-70
2022/11/27 00:58:35;;;;;;;53.15;17.27;;;;;;;9.92;100.00;102512.25;5106284;28;20080;-70
2022/11/27 01:01:03;;;;;;;47.83;17.27;;;;;;;9.87;100.00;102504.66;5103455;28;20024;-70
2022/11/27 01:03:29;;;;;;;41.13;16.80;;;;;;;9.88;100.00;102500.97;5112803;28;20098;-70
2022/11/27 01:05:55;;;;;;;50.03;16.98;;;;;;;9.86;100.00;102502.94;5084259;28;20020;-70
2022/11/27 01:08:22;;;;;;;53.28;17.33;;;;;;;9.95;100.00;102516.47;5111797;28;20096;-72
2022/11/27 01:10:57;;;;;;;55.65;18.08;;;;;;;9.93;100.00;102503.19;5109290;28;20139;-70
2022/11/27 01:13:32;;;;;;;49.45;17.27;;;;;;;9.93;100.00;102510.41;5101847;28;20039;-71
2022/11/27 01:16:06;;;;;;;53.78;16.77;;;;;;;9.82;100.00;102495.34;5085793;28;20081;-70
2022/11/27 01:18:33;;;;;;;48.08;17.83;;;;;;;9.96;100.00;102523.53;5108844;28;20043;-70
2022/11/27 01:21:00;;;;;;;51.65;15.88;;;;;;;9.91;100.00;102520.47;5112965;28;20420;-70
2022/11/27 01:23:25;;;;;;;46.55;17.00;;;;;;;9.72;100.00;102481.97;5106627;28;20024;-70
2022/11/27 01:25:52;;;;;;;55.58;17.00;;;;;;;9.73;100.00;102477.44;5118132;28;20050;-70
2022/11/27 01:28:18;;;;;;;49.55;17.60;;;;;;;9.89;100.00;102509.88;5109970;28;20043;-70
2022/11/27 01:30:44;;;;;;;49.95;17.42;;;;;;;9.88;100.00;102500.97;5112040;28;20098;-70
2022/11/27 01:33:09;;;;;;;48.72;17.65;;;;;;;9.89;100.00;102501.78;5116342;28;20129;-70
2022/11/27 01:35:35;;;;;;;45.08;17.20;;;;;;;9.87;100.00;102495.75;5104234;28;20028;-70
2022/11/27 01:38:00;;;;;;;56.90;16.80;;;;;;;9.91;100.00;102493.59;5100832;28;20028;-70
2022/11/27 01:40:25;;;;;;;48.47;17.70;;;;;;;9.89;100.00;102486.50;5108876;28;20104;-70
2022/11/27 01:42:51;;;;;;;45.33;16.02;;;;;;;9.86;100.00;102478.75;5110069;28;20039;-70
2022/11/27 01:45:19;;;;;;;43.67;15.45;;;;;;;9.88;100.00;102483.97;5117576;28;20070;-71
2022/11/27 01:47:55;;;;;;;48.42;16.77;;;;;;;9.89;100.00;102475.75;5106124;28;20045;-70
2022/11/27 01:50:34;;;;;;;40.92;15.88;;;;;;;9.97;100.00;102472.31;5115350;28;20061;-70
2022/11/27 01:53:06;;;;;;;40.10;15.98;;;;;;;9.95;100.00;102474.31;5113999;28;20035;-70
2022/11/27 01:55:36;;;;;;;46.55;16.38;;;;;;;9.96;100.00;102465.22;5104508;28;20475;-70
2022/11/27 01:58:05;;;;;;;42.83;16.55;;;;;;;9.91;100.00;102456.78;5116917;28;20028;-70
2022/11/27 02:00:31;;;;;;;50.00;17.25;;;;;;;9.89;100.00;102451.56;5110576;28;20043;-70
2022/11/27 02:02:57;;;;;;;50.80;16.88;;;;;;;9.83;100.00;102445.94;5108668;28;20471;-70
2022/11/27 02:05:25;;;;;;;49.33;16.25;;;;;;;9.83;100.00;102438.75;5115585;28;20402;-70
2022/11/27 02:07:51;;;;;;;47.72;15.93;;;;;;;9.80;100.00;102431.00;5104203;28;20056;-70
2022/11/27 02:10:18;;;;;;;50.10;16.45;;;;;;;9.80;100.00;102422.94;5115808;28;20031;-70
2022/11/27 02:13:02;;;;;;;47.53;16.75;;;;;;;9.82;100.00;102417.38;5112211;28;20043;-71
2022/11/27 02:15:44;;;;;;;51.17;16.17;;;;;;;9.59;100.00;102376.69;5105990;28;20426;-70
2022/11/27 02:18:28;;;;;;;57.03;18.33;;;;;;;9.80;100.00;102396.03;5092307;28;20032;-70
2022/11/27 02:21:18;;;;;;;52.50;18.08;;;;;;;9.76;100.00;102391.94;5110503;28;20043;-70
2022/11/27 02:24:01;;;;;;;43.88;18.85;;;;;;;9.76;100.00;102394.63;5117425;28;20038;-70
2022/11/27 02:26:51;;;;;;;46.15;18.52;;;;;;;9.76;100.00;102399.19;5108070;28;20034;-70
2022/11/27 02:29:21;;;;;;;45.40;18.48;;;;;;;9.68;100.00;102401.81;5106688;28;20059;-70
2022/11/27 02:31:56;;;;;;;48.55;17.95;;;;;;;9.72;100.00;102398.63;5117144;28;20114;-71
2022/11/27 02:34:24;;;;;;;52.80;18.52;;;;;;;9.74;100.00;102395.81;5108240;28;20039;-71
2022/11/27 02:36:55;;;;;;;46.58;17.70;;;;;;;9.65;100.00;102370.69;5109130;28;20043;-70
2022/11/27 02:39:29;;;;;;;43.13;16.77;;;;;;;9.69;100.00;102376.59;5116727;28;20073;-70
2022/11/27 02:42:10;;;;;;;38.47;16.55;;;;;;;9.61;100.00;102375.53;5104134;28;20027;-70
2022/11/27 02:44:39;;;;;;;43.25;16.13;;;;;;;9.56;100.00;102368.94;5112359;28;20059;-70
2022/11/27 02:47:06;;;;;;;38.95;15.43;;;;;;;9.59;100.00;102387.44;5113156;28;20020;-70
2022/11/27 02:49:34;;;;;;;39.65;14.90;;;;;;;9.56;100.00;102387.75;5105145;28;20106;-70
2022/11/27 02:52:02;;;;;;;37.05;15.43;;;;;;;9.51;100.00;102396.28;5103921;27;20366;-70
2022/11/27 02:54:44;;;;;;;43.05;15.10;;;;;;;9.54;100.00;102397.81;5111831;28;20031;-70
2022/11/27 02:57:12;;;;;;;37.03;14.68;;;;;;;9.51;100.00;102384.69;5114531;28;20040;-70
2022/11/27 02:59:42;;;;;;;34.75;14.57;;;;;;;9.47;100.00;102377.91;5103779;28;20028;-70
2022/11/27 03:02:15;;;;;;;37.65;14.27;;;;;;;9.57;100.00;102400.16;5114424;28;20058;-70
2022/11/27 03:04:47;;;;;;;30.00;13.95;;;;;;;9.43;100.00;102377.38;5109472;28;20402;-70
2022/11/27 03:07:22;;;;;;;30.08;13.65;;;;;;;9.58;100.00;102401.88;5106483;28;20057;-70
2022/11/27 03:09:50;;;;;;;30.52;12.93;;;;;;;9.46;100.00;102395.03;5116455;28;20521;-70
2022/11/27 03:12:17;;;;;;;30.48;12.02;;;;;;;9.59;100.00;102419.69;5106536;28;20057;-70
2022/11/27 03:14:44;;;;;;;27.42;12.60;;;;;;;9.64;100.00;102422.78;5111293;28;20028;-70
2022/11/27 03:17:30;;;;;;;30.67;13.20;;;;;;;9.69;100.00;102425.81;5113129;28;20028;-70
2022/11/27 03:20:02;;;;;;;33.58;12.80;;;;;;;9.68;100.00;102431.38;5102215;28;20054;-70
2022/11/27 03:22:30;;;;;;;24.70;12.25;;;;;;;9.67;100.00;102433.22;5112787;28;20028;-70
2022/11/27 03:24:57;;;;;;;31.70;12.52;;;;;;;9.61;100.00;102426.59;5111980;28;20039;-70
2022/11/27 03:27:32;;;;;;;27.55;13.50;;;;;;;9.49;100.00;102397.41;5104589;28;20108;-70
2022/11/27 03:30:05;;;;;;;33.97;12.85;;;;;;;9.67;100.00;102426.97;5086143;28;20028;-70
2022/11/27 03:32:31;;;;;;;30.33;12.43;;;;;;;9.67;100.00;102422.47;5112529;28;20050;-70
2022/11/27 03:34:57;;;;;;;31.77;12.88;;;;;;;9.56;100.00;102403.88;5110782;28;20028;-70
2022/11/27 03:37:23;;;;;;;28.77;12.77;;;;;;;9.60;100.00;102408.78;5086619;28;20032;-70
2022/11/27 03:39:49;;;;;;;29.08;12.60;;;;;;;9.65;100.00;102425.28;5115272;28;20039;-70
2022/11/27 03:42:34;;;;;;;28.23;12.52;;;;;;;9.68;100.00;102424.16;5104994;28;20028;-70
2022/11/27 03:45:27;;;;;;;27.67;12.23;;;;;;;9.68;100.00;102415.25;5108359;28;20056;-70
2022/11/27 03:48:13;;;;;;;23.90;11.52;;;;;;;9.67;100.00;102419.78;5116070;28;20027;-70
2022/11/27 03:51:19;;;;;;;27.27;11.48;;;;;;;9.65;100.00;102419.91;5108880;28;20024;-70
2022/11/27 03:54:04;;;;;;;21.05;11.05;;;;;;;9.69;100.00;102425.81;5102584;28;20040;-70
2022/11/27 03:56:32;;;;;;;28.48;10.75;;;;;;;9.66;100.00;102415.38;5111230;28;20051;-70
2022/11/27 03:59:09;;;;;;;25.58;10.75;;;;;;;9.46;100.00;102379.75;5111514;28;20028;-70
2022/11/27 04:01:35;;;;;;;21.77;10.45;;;;;;;9.65;100.00;102411.84;5102069;28;20036;-70
2022/11/27 04:04:01;;;;;;;21.50;10.80;;;;;;;9.55;100.00;102396.81;5115686;28;20027;-70
2022/11/27 04:06:26;;;;;;;24.08;10.23;;;;;;;9.60;100.00;102397.19;5105438;28;20036;-70
2022/11/27 04:08:52;;;;;;;24.63;10.52;;;;;;;9.62;100.00;102404.09;5090697;28;20058;-70
2022/11/27 04:11:17;;;;;;;24.60;10.15;;;;;;;9.67;100.00;102398.28;5114975;28;20130;-70
2022/11/27 04:13:43;;;;;;;21.70;9.75;;;;;;;9.65;100.00;102393.03;5103605;28;20036;-70
2022/11/27 04:16:08;;;;;;;23.58;9.55;;;;;;;9.58;100.00;102391.13;5113363;28;20024;-70
2022/11/27 04:18:33;;;;;;;17.33;9.15;;;;;;;9.60;100.00;102394.50;5106930;28;20037;-70
2022/11/27 04:20:59;;;;;;;19.33;9.00;;;;;;;9.63;100.00;102394.19;5107495;28;20067;-70
2022/11/27 04:23:24;;;;;;;20.05;9.35;;;;;;;9.68;100.00;102402.66;5097752;28;20035;-71
2022/11/27 04:25:50;;;;;;;16.58;9.48;;;;;;;9.63;100.00;102391.50;5102281;28;20035;-70
2022/11/27 04:28:18;;;;;;;18.20;9.45;;;;;;;9.69;100.00;102408.84;5095693;28;20107;-70
2022/11/27 04:30:49;;;;;;;19.95;9.27;;;;;;;9.62;100.00;102393.34;5107959;28;20036;-70
2022/11/27 04:33:14;;;;;;;20.10;9.90;;;;;;;9.61;100.00;102405.09;5104652;28;20497;-70
2022/11/27 04:35:39;;;;;;;19.23;8.63;;;;;;;9.62;100.00;102405.94;5097610;28;20108;-70
2022/11/27 04:38:05;;;;;;;20.55;8.43;;;;;;;9.64;100.00;102412.03;5101691;28;20458;-71
2022/11/27 04:40:30;;;;;;;20.15;8.95;;;;;;;9.63;100.00;102403.13;5109992;28;20104;-70
2022/11/27 04:42:56;;;;;;;16.85;8.18;;;;;;;9.62;100.00;102392.50;5108717;28;20061;-70
2022/11/27 04:45:21;;;;;;;17.83;7.80;;;;;;;9.62;100.00;102387.13;5104393;28;20063;-70
2022/11/27 04:47:46;;;;;;;23.38;7.63;;;;;;;9.64;100.00;102385.16;5097581;28;20032;-70
2022/11/27 04:50:12;;;;;;;19.10;7.15;;;;;;;9.63;100.00;102387.00;5102737;28;20060;-70
2022/11/27 04:52:37;;;;;;;17.83;7.45;;;;;;;9.44;100.00;102352.22;5109511;28;20038;-70
2022/11/27 04:55:03;;;;;;;16.58;6.55;;;;;;;9.62;100.00;102379.06;5111747;28;20124;-70
2022/11/27 04:57:28;;;;;;;17.83;6.90;;;;;;;9.63;100.00;102375.38;5106367;28;20055;-70
2022/11/27 04:59:54;;;;;;;18.98;7.65;;;;;;;9.61;100.00;102370.16;5101011;28;20113;-70
2022/11/27 05:02:19;;;;;;;14.05;6.70;;;;;;;9.64;100.00;102371.72;5090984;28;20024;-70
2022/11/27 05:04:44;;;;;;;14.70;6.57;;;;;;;9.65;100.00;102376.06;5112609;28;20115;-70
2022/11/27 05:07:10;;;;;;;15.73;6.20;;;;;;;9.53;100.00;102355.78;5114947;28;20039;-70
2022/11/27 05:09:35;;;;;;;14.77;5.72;;;;;;;9.59;100.00;102368.63;5106136;28;20107;-70
2022/11/27 05:12:01;;;;;;;15.13;6.18;;;;;;;9.58;100.00;102358.88;5105267;28;20486;-70
2022/11/27 05:14:28;;;;;;;15.88;6.32;;;;;;;9.61;100.00;102362.09;5097949;28;20102;-70
2022/11/27 05:16:57;;;;;;;17.00;6.57;;;;;;;9.63;100.00;102364.63;5112172;28;20059;-70
2022/11/27 05:19:24;;;;;;;16.77;6.75;;;;;;;9.63;100.00;102370.00;5106579;28;20032;-70
2022/11/27 05:21:51;;;;;;;14.32;6.07;;;;;;;9.63;100.00;102370.88;5118533;28;20083;-70
2022/11/27 05:24:18;;;;;;;13.27;5.63;;;;;;;9.63;100.00;102370.00;5106994;28;20036;-70
2022/11/27 05:26:44;;;;;;;13.05;5.93;;;;;;;9.65;100.00;102362.63;5112148;28;20024;-70
2022/11/27 05:29:10;;;;;;;13.35;6.10;;;;;;;9.66;100.00;102364.31;5114009;28;20031;-71
2022/11/27 05:31:39;;;;;;;12.98;5.65;;;;;;;9.62;100.00;102358.41;5105983;28;20028;-70
2022/11/27 05:34:05;;;;;;;13.45;5.88;;;;;;;9.61;100.00;102366.63;5090063;28;20023;-70
2022/11/27 05:36:32;;;;;;;15.90;5.82;;;;;;;9.56;100.00;102360.88;5115095;28;20032;-70
2022/11/27 05:38:59;;;;;;;12.25;5.55;;;;;;;9.59;100.00;102355.19;5111363;28;20023;-70
2022/11/27 05:41:24;;;;;;;13.85;6.07;;;;;;;9.58;100.00;102354.34;5106858;28;20027;-70
2022/11/27 05:43:50;;;;;;;11.00;5.35;;;;;;;9.50;100.00;102353.41;5118083;28;20028;-70
2022/11/27 05:46:18;;;;;;;10.88;5.53;;;;;;;9.55;100.00;102359.19;5106317;28;20032;-70
2022/11/27 05:48:44;;;;;;;10.88;5.45;;;;;;;9.35;100.00;102323.56;5109915;28;20564;-70
2022/11/27 05:51:10;;;;;;;10.55;6.03;;;;;;;9.49;100.00;102347.19;5114425;28;20031;-70
2022/11/27 05:53:35;;;;;;;13.02;6.18;;;;;;;9.24;100.00;102313.91;5108398;28;20082;-70
2022/11/27 05:56:06;;;;;;;9.88;5.97;;;;;;;9.40;100.00;102326.63;5117402;28;20052;-70
2022/11/27 05:58:32;;;;;;;14.43;6.50;;;;;;;9.45;100.00;102327.03;5107934;28;20023;-70
2022/11/27 06:00:58;;;;;;;10.52;6.13;;;;;;;9.53;100.00;102334.31;5109860;28;20042;-70
2022/11/27 06:03:23;;;;;;;13.95;6.20;;;;;;;9.50;100.00;102331.91;5116575;28;20038;-70
2022/11/27 06:05:49;;;;;;;13.20;6.03;;;;;;;9.45;100.00;102340.47;5104571;28;20059;-71
2022/11/27 06:08:14;;;;;;;15.00;6.50;;;;;;;9.33;100.00;102317.50;5116503;28;20028;-70
2022/11/27 06:10:40;;;;;;;12.73;6.03;;;;;;;9.51;100.00;102341.69;5109551;28;20039;-70
2022/11/27 06:13:05;;;;;;;13.65;6.25;;;;;;;9.52;100.00;102343.38;5110026;28;20039;-70
2022/11/27 06:15:31;;;;;;;13.73;6.28;;;;;;;9.56;100.00;102350.13;5116826;28;20035;-71
2022/11/27 06:17:57;;;;;;;13.93;6.72;;;;;;;9.47;100.00;102329.53;5103154;28;20081;-70
2022/11/27 06:20:22;;;;;;;13.13;5.90;;;;;;;9.30;100.00;102321.31;5114017;28;20032;-72
2022/11/27 06:22:49;;;;;;;15.20;5.95;;;;;;;9.44;100.00;102330.72;5110134;28;20113;-71
2022/11/27 06:25:14;;;;;;;13.15;5.78;;;;;;;9.57;100.00;102347.28;5106761;27;20028;-71
2022/11/27 06:27:40;;;;;;;17.88;5.93;;;;;;;9.49;100.00;102332.94;5116127;28;20087;-70
2022/11/27 06:30:08;;;;;;;15.20;6.47;;;;;;;9.61;100.00;102347.81;5104958;28;20061;-70
2022/11/27 06:32:33;;;;;;;13.77;5.90;;;;;;;9.58;100.00;102348.97;5113649;28;20036;-70
2022/11/27 06:34:59;;;;;;;16.83;5.68;;;;;;;9.53;100.00;102337.00;5110813;28;20059;-71
2022/11/27 06:37:24;;;;;;;20.88;6.20;;;;;;;9.60;100.00;102355.03;5104498;28;20043;-69
2022/11/27 06:39:50;;;;;;;17.35;5.57;;;;;;;9.55;100.00;102351.13;5098438;28;20038;-71
2022/11/27 06:42:15;;;;;;;11.35;5.10;;;;;;;9.56;100.00;102345.56;5105360;28;20039;-72
2022/11/27 06:44:41;;;;;;;16.08;5.65;;;;;;;9.52;100.00;102346.06;5110938;28;20122;-71
2022/11/27 06:47:06;;;;;;;10.68;5.28;;;;;;;9.53;100.00;102355.78;5091678;28;20047;-70
2022/11/27 06:49:32;;;;;;;16.70;5.60;;;;;;;9.25;100.00;102298.63;5102572;28;20032;-70
2022/11/27 06:51:57;;;;;;;11.25;5.30;;;;;;;9.37;100.00;102333.19;5115276;28;20041;-68
2022/11/27 06:54:23;;;;;;;13.75;5.55;;;;;;;9.48;100.00;102344.69;5105981;28;20027;-68
2022/11/27 06:56:49;;;;;;;13.90;5.50;;;;;;;9.52;100.00;102344.22;5109594;28;20159;-69
2022/11/27 06:59:15;;;;;;;16.55;5.82;;;;;;;9.53;100.00;102342.38;5114041;28;20035;-69
2022/11/27 07:01:41;;;;;;;12.15;6.00;;;;;;;9.37;100.00;102309.00;5101907;28;20068;-69
2022/11/27 07:04:10;;;;;;;11.32;5.80;;;;;;;9.38;100.00;102313.34;5115954;28;20036;-69
2022/11/27 07:06:36;;;;;;;11.57;5.55;;;;;;;9.48;100.00;102340.16;5106799;28;20028;-69
2022/11/27 07:09:01;;;;;;;13.18;4.78;;;;;;;9.48;100.00;102342.00;5107622;28;20073;-72
2022/11/27 07:11:28;;;;;;;9.63;4.22;;;;;;;9.40;100.00;102334.69;5113194;28;20114;-69
2022/11/27 07:13:56;;;;;;;9.02;4.30;;;;;;;9.44;100.00;102338.78;5101686;28;20052;-72
2022/11/27 07:16:22;;;;;;;12.13;3.75;;;;;;;9.37;100.00;102330.50;5101567;28;20028;-71
2022/11/27 07:18:50;;;;;;;8.45;3.78;;;;;;;9.49;100.00;102335.63;5111189;28;20047;-70
2022/11/27 07:21:16;;;;;;;8.75;3.30;;;;;;;9.35;100.00;102321.72;5106763;28;20502;-71
2022/11/27 07:23:42;;;;;;;7.40;3.30;;;;;;;9.47;100.00;102348.34;5095198;28;20031;-70
2022/11/27 07:26:10;;;;;;;5.95;3.47;;;;;;;9.32;100.00;102332.78;5101926;28;20028;-70
2022/11/27 07:28:36;;;;;;;6.72;3.85;;;;;;;9.23;100.00;102311.34;5116188;28;20038;-74
2022/11/27 07:31:02;;;;;;;5.55;3.50;;;;;;;9.37;100.00;102343.03;5107135;28;20036;-71
2022/11/27 07:33:27;;;;;;;7.93;3.80;;;;;;;9.37;100.00;102351.97;5128545;28;20024;-72
2022/11/27 07:36:05;;;;;;;7.10;3.55;;;;;;;9.36;100.00;102354.81;5101626;28;20032;-72
2022/11/27 07:38:30;;;;;;;4.70;2.92;;;;;;;9.40;100.00;102350.81;5129478;28;20035;-72
2022/11/27 07:41:00;;;;;;;8.23;3.50;;;;;;;9.38;100.00;102359.03;5127237;28;20398;-72
2022/11/27 07:43:26;;;;;;;8.07;4.00;;;;;;;9.35;100.00;102364.72;5121807;28;20096;-73
2022/11/27 07:45:52;;;;;;;7.60;3.50;;;;;;;9.20;100.00;102347.41;5131623;28;20035;-72
2022/11/27 07:48:17;;;;;;;6.95;2.90;;;;;;;9.34;100.00;102368.41;5120110;28;20023;-71
2022/11/27 07:50:43;;;;;;;9.00;4.00;;;;;;;9.34;100.00;102368.41;5126738;28;20055;-75
2022/11/27 07:53:12;;;;;;;11.80;4.55;;;;;;;9.30;100.00;102374.22;5126930;28;20094;-74
2022/11/27 07:55:38;;;;;;;9.10;5.60;;;;;;;9.30;100.00;102372.38;5112190;28;20035;-72
2022/11/27 07:58:04;;;;;;;4.35;2.95;;;;;;;9.21;100.00;102343.75;5115115;28;20036;-70
2022/11/27 08:00:30;;;;;;;6.55;3.75;;;;;;;9.24;100.00;102356.88;5103576;28;20035;-70
2022/11/27 08:02:55;;;;;;;7.25;4.40;;;;;;;9.20;100.00;102336.69;5106852;28;20557;-71
2022/11/27 08:05:21;;;;;;;8.60;3.33;;;;;;;9.21;100.00;102345.59;5110572;28;20062;-70
2022/11/27 08:07:46;;;;;;;5.63;2.60;;;;;;;9.05;100.00;102346.28;5101752;28;20024;-80
2022/11/27 08:10:11;;;;;;;6.25;3.08;;;;;;;9.22;100.00;102352.66;5129048;28;20020;-71
2022/11/27 08:12:37;;;;;;;5.32;2.70;;;;;;;9.20;100.00;102349.25;5112558;28;20057;-71
2022/11/27 08:15:04;;;;;;;6.78;3.10;;;;;;;9.19;100.00;102364.53;5092782;28;20036;-71
2022/11/27 08:17:30;;;;;;;6.70;3.20;;;;;;;9.27;100.00;102364.63;5114884;28;20024;-71
2022/11/27 08:19:55;;;;;;;5.90;2.70;;;;;;;9.30;100.00;102358.94;5101011;28;20040;-70
2022/11/27 08:22:21;;;;;;;5.30;2.85;;;;;;;9.34;100.00;102351.44;5097066;28;20093;-70
2022/11/27 08:24:47;;;;;;;8.40;3.28;;;;;;;9.29;100.00;102357.25;5108922;28;20088;-71
2022/11/27 08:27:14;;;;;;;7.20;2.90;;;;;;;9.26;100.00;102348.66;5107548;28;20024;-71
2022/11/27 08:29:39;;;;;;;7.47;3.00;;;;;;;9.12;100.00;102350.03;5118690;28;20081;-73
2022/11/27 08:32:05;;;;;;;6.90;3.30;;;;;;;9.30;100.00;102347.34;5089524;28;20084;-70
2022/11/27 08:34:31;;;;;;;8.90;3.70;;;;;;;9.19;100.00;102321.56;5098102;28;20036;-72
2022/11/27 08:36:56;;;;;;;6.05;3.80;;;;;;;9.38;100.00;102340.22;5113232;28;20058;-71
2022/11/27 08:39:22;;;;;;;7.45;4.30;;;;;;;9.32;100.00;102345.38;5109121;28;20028;-70
2022/11/27 08:41:47;;;;;;;9.85;4.60;;;;;;;9.24;100.00;102340.78;5121803;28;20040;-71
2022/11/27 08:44:12;;;;;;;10.18;5.63;;;;;;;9.30;100.00;102336.59;5107714;28;20431;-73
2022/11/27 08:46:38;;;;;;;9.57;4.88;;;;;;;9.36;100.00;102331.47;5115823;28;20028;-70
2022/11/27 08:49:03;;;;;;;7.10;3.88;;;;;;;9.16;100.00;102329.94;5117099;28;20031;-71
2022/11/27 08:51:29;;;;;;;11.13;4.45;;;;;;;9.09;100.00;102320.78;5110311;28;20123;-71
2022/11/27 08:53:54;;;;;;;7.50;4.35;;;;;;;9.25;100.00;102312.91;5121822;28;20023;-74
2022/11/27 08:56:23;;;;;;;10.05;4.65;;;;;;;9.24;100.00;102313.03;5092137;28;20051;-74
2022/11/27 08:58:49;;;;;;;6.63;4.07;;;;;;;9.24;100.00;102308.53;5114690;28;20034;-70
2022/11/27 09:01:20;;;;;;;8.32;4.07;;;;;;;9.31;100.00;102312.28;5117166;28;20031;-73
2022/11/27 09:03:46;;;;;;;5.47;3.67;;;;;;;9.14;100.00;102315.81;5106692;28;20495;-70
2022/11/27 09:06:15;;;;;;;9.50;4.07;;;;;;;8.99;100.00;102271.69;5119617;28;20034;-70
2022/11/27 09:08:42;;;;;;;11.32;4.07;;;;;;;9.36;100.00;102327.94;5110712;28;20035;-71
2022/11/27 09:11:08;;;;;;;6.47;4.22;;;;;;;9.46;100.00;102325.16;5093302;28;20163;-72
2022/11/27 09:13:39;;;;;;;9.90;3.70;;;;;;;9.49;100.00;102327.56;5117357;28;20118;-70
2022/11/27 09:16:08;;;;;;;8.35;4.20;;;;;;;9.48;100.00;102324.03;5105142;28;20058;-71
2022/11/27 09:18:33;;;;;;;5.72;3.40;;;;;;;9.42;100.00;102300.47;5117974;27;20081;-70
2022/11/27 09:21:01;;;;;;;5.75;3.50;;;;;;;9.55;100.00;102313.50;5115059;28;20032;-71
2022/11/27 09:23:27;;;;;;;10.02;3.55;;;;;;;9.51;100.00;102302.22;5106698;28;20031;-71
2022/11/27 09:25:53;;;;;;;10.20;4.88;;;;;;;9.44;100.00;102297.59;5121777;28;20038;-71
2022/11/27 09:28:19;;;;;;;7.22;4.82;;;;;;;9.53;100.00;102297.53;5116364;28;20024;-71
2022/11/27 09:30:44;;;;;;;8.38;3.80;;;;;;;9.37;100.00;102275.88;5120281;28;20410;-74
2022/11/27 09:33:10;;;;;;;7.75;3.70;;;;;;;9.46;100.00;102301.81;5117707;28;20046;-70
2022/11/27 09:35:37;;;;;;;7.20;5.00;;;;;;;9.40;100.00;102299.75;5112552;28;20047;-73
2022/11/27 09:38:02;;;;;;;9.70;5.25;;;;;;;9.47;100.00;102297.28;5133050;28;20026;-72
2022/11/27 09:40:28;;;;;;;6.65;3.90;;;;;;;9.58;100.00;102299.75;5122280;28;20398;-74
2022/11/27 09:43:03;;;;;;;7.13;4.00;;;;;;;9.58;100.00;102294.38;5118119;28;20028;-69
2022/11/27 09:45:29;;;;;;;;;;;;;;;9.43;100.00;102302.13;5119924;28;20032;-72
2022/11/27 09:48:01;;;;;;;14.00;9.77;;;;;;;9.55;100.00;102283.94;5118851;28;19912;-76
2022/11/27 09:50:32;;;;;;;13.18;9.95;;;;;;;9.49;100.00;102258.53;5129420;28;20012;-74
2022/11/27 09:53:30;;;;;;;15.52;11.02;;;;;;;9.42;100.00;102249.41;5125416;28;20032;-71
2022/11/27 09:56:02;;;;;;;37.35;27.55;;;;;;;9.47;100.00;102281.19;5077816;28;20060;-80
2022/11/27 09:58:37;;;;;;;13.02;8.18;;;;;;;9.55;100.00;102274.03;5082697;28;20026;-75
2022/11/27 10:01:12;;;;;;;7.00;5.20;;;;;;;9.65;100.00;102274.78;5082558;28;20033;-71
2022/11/27 10:03:40;;;;;;;10.00;6.13;;;;;;;9.60;100.00;102268.19;5070984;28;20032;-72
2022/11/27 10:06:20;;;;;;;9.05;5.18;;;;;;;9.62;100.00;102269.72;5092583;28;20040;-78
2022/11/27 10:09:19;;;;;;;26.67;20.25;;;;;;;9.59;100.00;102269.19;5103068;28;20016;-76
2022/11/27 10:11:47;;;;;;;32.42;21.88;;;;;;;9.46;100.00;102258.84;5093637;28;20514;-84
2022/11/27 10:14:30;;;;;;;25.80;16.13;;;;;;;9.65;100.00;102258.66;5106886;28;20037;-75
2022/11/27 10:17:11;;;;;;;22.65;15.88;;;;;;;9.38;100.00;102232.75;5104572;28;20032;-72
2022/11/27 10:19:45;;;;;;;10.93;4.72;;;;;;;9.72;100.00;102252.66;5096398;28;20029;-76
2022/11/27 10:22:19;;;;;;;20.08;16.63;;;;;;;9.60;100.00;102250.22;5073334;28;20112;-71
2022/11/27 10:25:02;;;;;;;16.80;13.30;;;;;;;9.55;100.00;102219.44;5071314;28;20036;-71
2022/11/27 10:27:39;;;;;;;13.95;8.02;;;;;;;9.72;100.00;102247.28;5109368;28;20040;-71
2022/11/27 10:30:17;;;;;;;8.43;5.68;;;;;;;9.60;100.00;102231.44;5124712;28;20027;-76
2022/11/27 10:32:45;;;;;;;11.63;6.82;;;;;;;9.63;100.00;102227.56;5111756;28;20455;-71
2022/11/27 10:35:18;;;;;;;19.65;11.20;;;;;;;9.73;100.00;102247.09;5107675;28;20027;-71
2022/11/27 10:37:49;;;;;;;13.73;6.88;;;;;;;9.70;100.00;102243.88;5119889;28;20035;-71
2022/11/27 10:40:26;;;;;;;9.77;7.10;;;;;;;9.61;100.00;102240.31;5089457;28;20035;-72
2022/11/27 10:43:11;;;;;;;12.57;6.00;;;;;;;9.74;100.00;102243.44;5112584;28;20035;-71
2022/11/27 10:46:01;;;;;;;11.85;6.75;;;;;;;9.68;100.00;102241.38;5117428;28;20019;-73
2022/11/27 10:48:28;;;;;;;10.88;4.88;;;;;;;9.57;100.00;102217.44;5109739;27;20028;-71
2022/11/27 10:50:54;;;;;;;14.25;7.13;;;;;;;9.65;100.00;102221.03;5110644;28;20031;-72
2022/11/27 10:53:22;;;;;;;16.95;8.73;;;;;;;9.79;100.00;102242.94;5112989;28;20027;-71
2022/11/27 10:56:02;;;;;;;12.60;5.22;;;;;;;9.77;100.00;102239.59;5105034;28;20056;-71
2022/11/27 10:58:49;;;;;;;13.60;7.22;;;;;;;9.80;100.00;102239.25;5116504;27;20031;-71
2022/11/27 11:01:17;;;;;;;19.27;9.48;;;;;;;9.83;100.00;102231.75;5102777;28;20036;-71
2022/11/27 11:03:43;;;;;;;29.02;15.77;;;;;;;9.51;100.00;102202.81;5119447;28;20066;-72
2022/11/27 11:06:23;;;;;;;19.83;7.53;;;;;;;9.79;100.00;102238.41;5104414;27;20083;-71
2022/11/27 11:09:23;;;;;;;13.73;7.25;;;;;;;9.84;100.00;102230.72;5111621;28;20023;-70
2022/11/27 11:11:49;;;;;;;15.35;7.68;;;;;;;9.84;100.00;102227.19;5069377;28;20040;-71
2022/11/27 11:14:18;;;;;;;11.65;5.75;;;;;;;9.90;100.00;102218.50;5117303;28;20576;-71
2022/11/27 11:16:44;;;;;;;14.95;6.78;;;;;;;9.96;100.00;102204.38;5111101;28;20029;-72
2022/11/27 11:19:21;;;;;;;13.43;6.10;;;;;;;9.99;100.00;102212.13;5109077;28;20593;-71
2022/11/27 11:21:47;;;;;;;17.02;7.88;;;;;;;9.97;100.00;102206.09;5115558;28;20063;-71
2022/11/27 11:24:21;;;;;;;14.60;7.50;;;;;;;10.05;100.00;102210.66;5109073;28;20035;-71
2022/11/27 11:26:49;;;;;;;;;;;;;;;10.05;100.00;102202.59;5116938;28;20090;-71